Portada
METAR-TAF:

METAR-TAF

Aeroports :

Wick, Escòcia

latitud: 58-27N, longitud: 003-05W, altitud: 39 m

Observació

L'informe es va fer fa 22 minuts, a les 20:50 UTC
Vent 5 kt del Sud
Temperatura 17°C
Humitat 77%
Pressió 1017 hPa
Visibilitat 10 km o més

METAR: EGPC 242050Z AUTO 19005KT 9999 NCD 17/13 Q1017

Hora: 22:12 (21:12 UTC)

Pronòstic

L'informe es va fer fa 1 hora i 18 minuts, a les 19:54 UTC
Pronòstic vàlid del 24 a les 21 UTC al 25 a les 06 UTC
Vent 3 kt amb direcció variable
Visibilitat 10 km o més
sense núvols per sota de 1500 mi sense presència de cumulonimbus.
Probabilitat 30% :
Temporalment
l' 25 a les 03 UTC al 25 a les 06 UTC
Visibilitat: 6000 m

TAF: EGPC 241954Z 2421/2506 VRB03KT CAVOK PROB30 TEMPO 2503/2506 6000

Observacions i pronòstics meteorològics de més de 4000 aeroports (METAR i TAF).

Les estacions disponibles són els punts grocs i vermells al mapa.

Posi el ratolí al punt desitjat per veure el nom de l'estació.

Feu clic per veure les observacions i els pronòstics meteorològics.

Per canviar el mapa: feu clic els botons verds amb una creu de color negre per apropar; al botó verd amb un guió per allunyar la imatge; o en les fletxes verdes per a mapes adjacents.


METAR-TAF: